Portosanto — EAPR — position and weather

sailwx.info

Track history (hours):
 
Tides and Currents Weather Stations Pressure Air Temp Water Temp Dewpoint Dewpoint Depression Visibility Wind Speed Wind Dir Waves Ship Positions

Portosanto

Last reported at 2017-Nov-18 20:58 UTC. Time now 2017-Nov-21 10:01 UTC.
Position N 39°10' W 009°53'.

Length 27 m; draft 3 m.

Type: Fishing. MMSI: 225353000.

Date/timePositionNaut miles runAvg speedWind from/ knotsBaromVisibWave heightAir tempDewpointWater temp
2017-Nov-18 20:58N 39°10' W 009°53'2 3.7
2017-Nov-18 20:27N 39°08' W 009°54'1 1.4
2017-Nov-18 19:45N 39°09' W 009°54'1 3.0
2017-Nov-18 19:30N 39°09' W 009°55'5 0.5
2017-Nov-18 09:18N 39°07' W 009°49'3 1.3
2017-Nov-18 07:04N 39°04' W 009°51'0 3.1
2017-Nov-18 07:00N 39°04' W 009°51'1 2.9
2017-Nov-18 06:30N 39°03' W 009°53'2 3.1
2017-Nov-18 05:58N 39°03' W 009°55'1 3.1
2017-Nov-18 05:30N 39°01' W 009°56'0 0.3
2017-Nov-18 04:59N 39°01' W 009°56'1 0.7
2017-Nov-18 03:51N 39°02' W 009°56'1 3.0
2017-Nov-18 03:30N 39°03' W 009°55'5 2.9
2017-Nov-18 01:49N 39°05' W 009°50'1 2.9
2017-Nov-18 01:30N 39°05' W 009°49'2 3.4
2017-Nov-18 00:55N 39°05' W 009°46'1 1.9
2017-Nov-18 00:30N 39°05' W 009°47'0 0.1
2017-Nov-18 00:00N 39°05' W 009°47'2 3.1
2017-Nov-17 23:30N 39°05' W 009°49'2 3.1
2017-Nov-17 22:50N 39°04' W 009°51'1 3.1
2017-Nov-17 22:30N 39°04' W 009°52'2 3.1
2017-Nov-17 21:49N 39°02' W 009°54'1 3.0
2017-Nov-17 21:29N 39°01' W 009°55'1 2.4
2017-Nov-17 20:53N 39°00' W 009°56'3 2.2
2017-Nov-17 19:39N 39°02' W 009°58'4 1.0
2017-Nov-17 16:08N 38°59' W 009°57'0 3.1
2017-Nov-17 16:00N 38°59' W 009°56'2 3.8
2017-Nov-17 15:30N 38°58' W 009°54'1 1.3
2017-Nov-17 15:00N 38°58' W 009°55'7 2.8
2017-Nov-17 12:30N 38°60' W 010°04'2 3.1
2017-Nov-17 11:58N 38°59' W 010°06'12 0.6
2017-Nov-16 16:57N 39°10' W 009°60'8 0.8
2017-Nov-16 07:47N 39°06' W 009°51'0 1.0
2017-Nov-16 07:30N 39°06' W 009°51'1 1.9
2017-Nov-16 07:00N 39°07' W 009°51'2 3.1
2017-Nov-16 06:31N 39°08' W 009°51'2 3.2
2017-Nov-16 06:00N 39°10' W 009°51'2 3.2
2017-Nov-16 05:30N 39°12' W 009°51'2 3.2
2017-Nov-16 04:54N 39°14' W 009°51'  
2017-Nov-11 13:00N 38°57' W 009°54'1 1.4
2017-Nov-11 12:27N 38°58' W 009°55'4 0.1
2017-Nov-10 03:22N 38°59' W 009°59'1 3.1
2017-Nov-10 03:00N 38°58' W 009°59'10 0.5
2017-Nov-09 06:17N 39°06' W 009°53'1 2.2
2017-Nov-09 05:58N 39°06' W 009°54'1 2.1
2017-Nov-09 05:27N 39°08' W 009°54'  
Track history (hours):
 
Tides and Currents Weather Stations Pressure Air Temp Water Temp Dewpoint Dewpoint Depression Visibility Wind Speed Wind Dir Waves Ship Positions

Portosanto

Last reported at 2017-Nov-18 20:58 UTC. Time now 2017-Nov-21 10:01 UTC.
Position N 39°10' W 009°53'.

Length 27 m; draft 3 m.

Type: Fishing. MMSI: 225353000.

Date/timePositionNaut miles runAvg speedWind from/ knotsBaromVisibWave heightAir tempDewpointWater temp
2017-Nov-18 20:58N 39°10' W 009°53'2 3.7
2017-Nov-18 20:27N 39°08' W 009°54'1 1.4
2017-Nov-18 19:45N 39°09' W 009°54'1 3.0
2017-Nov-18 19:30N 39°09' W 009°55'5 0.5
2017-Nov-18 09:18N 39°07' W 009°49'3 1.3
2017-Nov-18 07:04N 39°04' W 009°51'0 3.1
2017-Nov-18 07:00N 39°04' W 009°51'1 2.9
2017-Nov-18 06:30N 39°03' W 009°53'2 3.1
2017-Nov-18 05:58N 39°03' W 009°55'1 3.1
2017-Nov-18 05:30N 39°01' W 009°56'0 0.3
2017-Nov-18 04:59N 39°01' W 009°56'1 0.7
2017-Nov-18 03:51N 39°02' W 009°56'1 3.0
2017-Nov-18 03:30N 39°03' W 009°55'5 2.9
2017-Nov-18 01:49N 39°05' W 009°50'1 2.9
2017-Nov-18 01:30N 39°05' W 009°49'2 3.4
2017-Nov-18 00:55N 39°05' W 009°46'1 1.9
2017-Nov-18 00:30N 39°05' W 009°47'0 0.1
2017-Nov-18 00:00N 39°05' W 009°47'2 3.1
2017-Nov-17 23:30N 39°05' W 009°49'2 3.1
2017-Nov-17 22:50N 39°04' W 009°51'1 3.1
2017-Nov-17 22:30N 39°04' W 009°52'2 3.1
2017-Nov-17 21:49N 39°02' W 009°54'1 3.0
2017-Nov-17 21:29N 39°01' W 009°55'1 2.4
2017-Nov-17 20:53N 39°00' W 009°56'3 2.2
2017-Nov-17 19:39N 39°02' W 009°58'4 1.0
2017-Nov-17 16:08N 38°59' W 009°57'0 3.1
2017-Nov-17 16:00N 38°59' W 009°56'2 3.8
2017-Nov-17 15:30N 38°58' W 009°54'1 1.3
2017-Nov-17 15:00N 38°58' W 009°55'7 2.8
2017-Nov-17 12:30N 38°60' W 010°04'2 3.1
2017-Nov-17 11:58N 38°59' W 010°06'12 0.6
2017-Nov-16 16:57N 39°10' W 009°60'8 0.8
2017-Nov-16 07:47N 39°06' W 009°51'0 1.0
2017-Nov-16 07:30N 39°06' W 009°51'1 1.9
2017-Nov-16 07:00N 39°07' W 009°51'2 3.1
2017-Nov-16 06:31N 39°08' W 009°51'2 3.2
2017-Nov-16 06:00N 39°10' W 009°51'2 3.2
2017-Nov-16 05:30N 39°12' W 009°51'2 3.2
2017-Nov-16 04:54N 39°14' W 009°51'  
2017-Nov-11 13:00N 38°57' W 009°54'1 1.4
2017-Nov-11 12:27N 38°58' W 009°55'4 0.1
2017-Nov-10 03:22N 38°59' W 009°59'1 3.1
2017-Nov-10 03:00N 38°58' W 009°59'10 0.5
2017-Nov-09 06:17N 39°06' W 009°53'1 2.2
2017-Nov-09 05:58N 39°06' W 009°54'1 2.1
2017-Nov-09 05:27N 39°08' W 009°54'  

Dump ship's entire track history